Shemah Yisrael!
Hear, O Israel: the LORD our God, the LORD is one.
You shall love the LORD your God with all your heart and with all your soul and with all your might.
(Deuteronomy 6:4-5)
Houston / Ellington, TX, United States (KEFD) 29-36N 095-10W
May 26, 2018 - 10:50 AM EDT / 2018.05.26 1450 UTC
Wind: from the SW (230 degrees) at 8 MPH (7 KT):0
Visibility: 10 mile(s):0
Sky conditions: mostly cloudy
Temperature: 86 F (30 C)
Heat index: 95.0 F (35.0 C):1
Dew Point: 75 F (24 C)
Relative Humidity: 70%
Pressure (altimeter): 29.89 in. Hg (1012 hPa)
ob: KEFD 261450Z 23007KT 10SM SCT020 BKN030 BKN250 30/24 A2989
cycle: 15
w e b m a s t e r   a t   s h e m a h   d o t   n e t